Relevés horaires Matro (Suisse)


Relevés horaires à Matro - Jeudi 28 Févr. 2019
Heure UTC1 Température [°C] Vent [km/h] Hum. [%] Pres.4 [hPa] Visi. [Km] Nébu. [octa] Préc.5 [mm] Cond.
2m. Res. Ros. Dir.2 Vit. Moy. Raf.3
23:00 0.9 -5.8 -10.2 NNO 35.2 -- 44.4 43 850(-1.2/3h) -- -- -- --
22:00 1.5 -4.1 -10.3 NNO 25.9 -- 44.4 41 850(-1.1/3h) -- -- -- --
21:00 1.9 -4 -10.3 NNO 29.6 -- 50.0 40 850(-1.1/3h) -- -- -- --
20:00 1.8 -4.4 -9.0 NNO 33.3 -- 46.3 44 850(-0.6/3h) -- -- -- --
19:00 2.1 -3.9 -8.3 NNO 31.5 -- 50.0 46 850(-1.0/3h) -- -- -- --
18:00 2.3 -3.9 -8.7 NO 35.2 -- 50.0 44 850(-0.6/3h) -- -- -- --
17:00 3.2 -2.4 -9.4 NNO 31.5 -- 46.3 39 850(-1.2/3h) -- -- -- --
16:00 4.3 -0.7 -10.5 NO 27.8 -- 42.6 33 850(-1.3/3h) -- -- -- --
15:00 5.2 -0.1 -11.3 NO 35.2 -- 48.2 29 850(-1.6/3h) -- -- -- --
14:00 6.0 1.4 -13.3 NO 29.6 -- 48.2 23 850(-1.6/3h) -- -- -- --
13:00 6.5 3.4 -13.6 NO 16.7 -- 40.7 22 850(-0.8/3h) -- -- -- --
12:00 6.6 2.8 -14.9 NO 22.2 -- 50.0 20 850(-0.5/3h) -- -- -- --
11:00 6.9 3 -15.4 NO 24.1 -- 46.3 19 850(0.0/3h) -- -- -- --
10:00 6.8 2.3 -15.7 NO 31.5 -- 50.0 18 850(-0.1/3h) -- -- -- --
09:00 6.3 2.9 -11.9 NO 18.5 -- 44.4 26 850(0.2/3h) -- -- -- --
08:00 6.5 1.9 -12.0 NNO 31.5 -- 44.4 25 850(-0.1/3h) -- -- -- --
07:00 6.2 1.5 -11.6 NO 31.5 -- 42.6 27 850(-0.1/3h) -- -- -- --
06:00 6.6 2.2 -10.3 NO 29.6 -- 37.0 29 850(-0.6/3h) -- -- -- --
05:00 6.5 2.2 -9.4 NO 27.8 -- 37.0 31 850(-1.1/3h) -- -- -- --
04:00 6.6 3.3 -9.5 NO 18.5 -- 33.3 30 850(-1.5/3h) -- -- -- --
03:00 7.0 3.2 -9.8 NO 24.1 -- 29.6 29 850(-1.6/3h) -- -- -- --
02:00 6.9 3.9 -8.6 NO 16.7 -- 22.2 32 850(-1.1/3h) -- -- -- --
01:00 7.1 4.4 -9.0 NO 14.8 -- 25.9 31 850(-0.8/3h) -- -- -- --
00:00 6.6 3.5 -7.8 NO 16.7 -- 25.9 35 850(-0.6/3h) -- -- -- --

1 Coordinated Universal Time. Actuellement il est 00:00 locale et 22:00 UTC.

2 Le vent souffle depuis la direction indiquée vers la direction oposée.

3 Les rafales max. sont disponible 40 min après l'heure du relevé.

4 Pour les stations d'altitude (plus de 600m) le géopotentiel du niveau le plus proche de la pression obligatoire est indiqué.

5 Les stations disposant d'un diffuseur peuvent indiquer "trace". Cela signifie que des précipitations ont touchés le sol mais que la quantité est inférieure à 0.1 mm.

Copyright

Les données affichées sur cette page sont la propriété exclusive de Météo Suisse.

Récapitulatif de la journée
Température [°C] Vent [km/h] Ensoleillement4 [h] Precipitations totale5 [mm] Pression [Hpa]
Min1 Max.2 Moy.3 Max. Min Max.
6.2 7.0 0 50.0 9 h 42 min 0 850.0 850.0

1 Température minimale relevée entre 18:00 UTC la veille et 18:00 UTC le jour donné.

2 Température maximale relevée entre 06:00 UTC le jour donné et 06:00 UTC le lendemain.

3 Vent moyen de la journée basé sur les relevés horaires.

4 Ensoleillement en heures relevé entre 06:00 UTC la veille et 06:00 UTC le jour donné.

5 Précipitations totales tombées entre 06:00 UTC la jour donné et 06:00 UTC le lendemain.

Graphiques horaires